Amistad, New Mexico
Current Conditions -  °F | °C
As of 3:53 PM on Sunday 21 Dec 2014 (Local Time) from KDHT Reporting Station
Clear Clear  
Wind Chill: 51°   Ceiling: Unl
Heat Index: 51°   Visibility: 10mi
Dew Point: 26°   Wind: 12mph
Humidity: 38%   Direction: 210°SSW
Pressure: 29.61"   Gusts: NA
Location:  35.92°N, 103.16°W
Report Text: KDHT 212253Z AUTO 21010KT 10SM CLR 11/M03 A2961 RMK AO2 SLP022 T01061033
Loading
Personal Weather Stations






























Interactive Weather Map New forecast layout! Learn more

10-Day Weather Forecast

Advertisements
Track Severe Weather on mobile